Time;durP1;ratioP1;P1;durP2;ratioP2;P2;SDS_P1;SDS_P2;PMS_P1;PMS_P2;Temp;Humidity;BMP_temperature;BMP_pressure;BME280_temperature;BME280_humidity;BME280_pressure;Samples;Min_cycle;Max_cycle;Signal;HPM_P1;HPM_P2
2022/01/16 00:04:12;;;;;;;73.05;29.63;;;2.00;99.90;;;;;;4788031;29;20058;-63
2022/01/16 00:06:45;;;;;;;67.55;28.00;;;2.00;99.90;;;;;;4788184;29;20049;-62
2022/01/16 00:09:11;;;;;;;61.03;28.05;;;2.00;99.90;;;;;;4801980;29;20505;-62
2022/01/16 00:11:38;;;;;;;74.47;30.67;;;2.00;99.90;;;;;;4786431;29;20083;-63
2022/01/16 00:14:05;;;;;;;68.35;29.30;;;2.00;99.90;;;;;;4787184;29;20565;-62
2022/01/16 00:16:32;;;;;;;63.15;27.50;;;2.00;99.90;;;;;;4785149;29;20085;-63
2022/01/16 00:18:58;;;;;;;65.97;28.77;;;2.00;99.90;;;;;;4787743;29;20055;-63
2022/01/16 00:21:31;;;;;;;69.97;28.60;;;2.00;99.90;;;;;;4788311;29;20059;-62
2022/01/16 00:23:57;;;;;;;75.57;30.50;;;2.00;99.90;;;;;;4788719;29;20150;-63
2022/01/16 00:26:23;;;;;;;75.78;30.42;;;2.00;99.90;;;;;;4787089;29;20090;-63
2022/01/16 00:28:50;;;;;;;87.40;32.42;;;2.00;99.90;;;;;;4788532;29;20054;-62
2022/01/16 00:31:17;;;;;;;76.85;31.90;;;2.10;99.90;;;;;;4787080;29;20497;-62
2022/01/16 00:33:44;;;;;;;80.43;32.20;;;2.10;99.90;;;;;;4788598;29;20042;-63
2022/01/16 00:36:11;;;;;;;80.68;32.58;;;2.10;99.90;;;;;;4788743;29;20047;-63
2022/01/16 00:38:43;;;;;;;81.60;33.15;;;2.10;99.90;;;;;;4787654;29;20100;-63
2022/01/16 00:41:09;;;;;;;77.72;31.90;;;2.20;99.90;;;;;;4771954;30;20062;-62
2022/01/16 00:43:35;;;;;;;89.10;34.28;;;2.20;99.90;;;;;;4784517;29;20093;-63
2022/01/16 00:46:01;;;;;;;75.97;32.03;;;2.30;99.90;;;;;;4787883;29;20090;-62
2022/01/16 00:48:27;;;;;;;83.57;33.03;;;2.20;99.90;;;;;;4785017;29;20047;-62
2022/01/16 00:50:53;;;;;;;84.95;34.67;;;2.20;99.90;;;;;;4785024;29;20051;-63
2022/01/16 00:53:18;;;;;;;92.20;35.15;;;2.20;99.90;;;;;;4786538;29;20108;-62
2022/01/16 00:55:44;;;;;;;90.15;32.95;;;2.10;99.90;;;;;;4785988;29;20043;-62
2022/01/16 00:58:10;;;;;;;86.90;32.58;;;2.20;99.90;;;;;;4785825;29;20405;-62
2022/01/16 01:00:35;;;;;;;78.82;30.85;;;2.10;99.90;;;;;;4784199;29;20366;-63
2022/01/16 01:03:01;;;;;;;85.68;33.60;;;2.10;99.90;;;;;;4786530;29;20122;-62
2022/01/16 01:05:27;;;;;;;90.57;35.15;;;2.20;99.90;;;;;;4787737;29;20465;-62
2022/01/16 01:07:54;;;;;;;96.60;34.38;;;2.20;99.90;;;;;;4787520;29;20121;-62
2022/01/16 01:10:27;;;;;;;84.85;33.45;;;2.20;99.90;;;;;;4786478;29;20294;-63
2022/01/16 01:12:55;;;;;;;85.78;31.75;;;2.30;99.90;;;;;;4783007;29;20056;-62
2022/01/16 01:15:29;;;;;;;92.15;33.65;;;2.20;99.90;;;;;;4787832;29;20059;-62
2022/01/16 01:17:55;;;;;;;85.78;31.10;;;2.30;99.90;;;;;;4781209;29;20410;-63
2022/01/16 01:20:22;;;;;;;96.00;33.50;;;2.30;99.90;;;;;;4783930;29;20099;-62
2022/01/16 01:22:50;;;;;;;99.53;33.92;;;2.30;99.90;;;;;;4785091;29;20054;-62
2022/01/16 01:25:16;;;;;;;78.95;31.90;;;2.30;99.90;;;;;;4785660;29;20511;-62
2022/01/16 01:27:44;;;;;;;85.03;31.52;;;2.30;99.90;;;;;;4786878;29;20051;-63
2022/01/16 01:30:12;;;;;;;98.18;33.83;;;2.30;99.90;;;;;;4783349;29;20047;-62
2022/01/16 01:32:39;;;;;;;87.93;32.45;;;2.30;99.90;;;;;;4787368;29;20116;-62
2022/01/16 01:35:08;;;;;;;85.78;31.83;;;2.30;99.90;;;;;;4787237;29;20107;-62
2022/01/16 01:37:34;;;;;;;95.68;33.42;;;2.30;99.90;;;;;;4785835;29;20055;-62
2022/01/16 01:40:02;;;;;;;97.45;33.78;;;2.20;99.90;;;;;;4785896;29;20058;-62
2022/01/16 01:42:33;;;;;;;94.85;32.53;;;2.30;99.90;;;;;;4785671;29;20051;-63
2022/01/16 01:53:13;;;;;;;109.93;35.08;;;2.30;99.90;;;;;;4776864;29;20054;-62
2022/01/16 01:55:42;;;;;;;104.72;33.47;;;2.30;99.90;;;;;;4786875;29;20043;-62
2022/01/16 01:58:08;;;;;;;95.45;31.77;;;2.30;99.90;;;;;;4787116;29;20046;-63
2022/01/16 02:00:35;;;;;;;114.47;34.28;;;2.30;99.90;;;;;;4786995;29;20477;-62
2022/01/16 02:05:26;;;;;;;105.70;33.05;;;2.40;99.90;;;;;;4786148;29;20089;-62
2022/01/16 02:07:52;;;;;;;105.40;34.15;;;2.40;99.90;;;;;;4784871;29;20051;-62
2022/01/16 02:10:18;;;;;;;99.80;32.70;;;2.50;99.90;;;;;;4785551;29;20451;-63
2022/01/16 02:12:46;;;;;;;103.93;32.85;;;2.50;99.90;;;;;;4786744;29;20495;-62
2022/01/16 02:31:47;;;;;;;100.75;32.70;;;2.50;99.90;;;;;;4781902;29;20048;-63
2022/01/16 02:37:05;;;;;;;101.63;33.10;;;2.50;99.90;;;;;;4782751;29;20047;-62
2022/01/16 02:39:35;;;;;;;111.90;33.80;;;2.50;99.90;;;;;;4785168;29;20074;-63
2022/01/16 02:42:02;;;;;;;102.07;32.97;;;2.50;99.90;;;;;;4785484;29;20501;-62
2022/01/16 02:46:57;;;;;;;92.15;33.45;;;2.60;99.90;;;;;;4786615;29;20066;-62
2022/01/16 02:49:33;;;;;;;100.25;32.22;;;2.60;99.90;;;;;;4787404;30;20070;-63
2022/01/16 02:52:03;;;;;;;93.47;32.05;;;2.60;99.90;;;;;;4786583;29;20047;-63
2022/01/16 02:54:34;;;;;;;115.70;35.05;;;2.60;99.90;;;;;;4786866;29;20485;-62
2022/01/16 02:57:00;;;;;;;87.60;30.63;;;2.60;99.90;;;;;;4789215;29;20428;-63
2022/01/16 02:59:26;;;;;;;82.40;31.75;;;2.60;99.90;;;;;;4788819;29;20036;-63
2022/01/16 03:01:52;;;;;;;81.18;29.63;;;2.60;99.90;;;;;;4788765;29;20089;-63
2022/01/16 03:04:18;;;;;;;121.82;33.80;;;2.60;99.90;;;;;;4788397;29;20506;-63
2022/01/16 03:06:44;;;;;;;100.88;33.15;;;2.60;99.90;;;;;;4787799;29;21340;-63
2022/01/16 03:09:10;;;;;;;89.25;31.40;;;2.70;99.90;;;;;;4787794;29;20040;-62
2022/01/16 03:11:41;;;;;;;101.85;33.20;;;2.60;99.90;;;;;;4787525;29;20051;-62
2022/01/16 03:14:11;;;;;;;106.15;32.67;;;2.60;99.90;;;;;;4788912;29;20043;-62
2022/01/16 03:16:39;;;;;;;100.53;33.33;;;2.70;99.90;;;;;;4787913;29;20048;-62
2022/01/16 03:21:54;;;;;;;89.75;30.15;;;2.70;99.90;;;;;;4778404;29;20059;-63
2022/01/16 03:24:32;;;;;;;102.78;32.80;;;2.70;99.90;;;;;;4786857;29;20059;-62
2022/01/16 03:27:04;;;;;;;93.72;30.60;;;2.70;99.90;;;;;;4781085;29;20066;-63
2022/01/16 03:29:30;;;;;;;104.72;33.75;;;2.70;99.90;;;;;;4772676;30;20054;-63
2022/01/16 03:31:57;;;;;;;99.90;34.17;;;2.70;99.90;;;;;;4789309;29;20100;-62
2022/01/16 03:34:23;;;;;;;89.72;31.75;;;2.70;99.90;;;;;;4787725;29;20090;-63
2022/01/16 03:36:50;;;;;;;92.85;32.25;;;2.80;99.90;;;;;;4788548;29;20130;-62
2022/01/16 03:39:16;;;;;;;93.05;32.00;;;2.80;99.90;;;;;;4781672;29;20044;-63
2022/01/16 03:41:41;;;;;;;96.88;34.65;;;2.80;99.90;;;;;;4786967;29;20099;-62
2022/01/16 03:44:07;;;;;;;86.15;31.77;;;2.80;99.90;;;;;;4788646;29;20050;-63
2022/01/16 03:46:39;;;;;;;104.30;35.80;;;2.90;99.90;;;;;;4788523;29;20396;-62
2022/01/16 03:49:16;;;;;;;90.93;31.92;;;2.80;99.90;;;;;;4788455;29;20134;-62
2022/01/16 03:51:45;;;;;;;92.13;32.35;;;2.90;99.90;;;;;;4786690;29;20055;-62
2022/01/16 03:54:13;;;;;;;102.75;34.58;;;2.90;99.90;;;;;;4787724;29;20043;-63
2022/01/16 03:56:39;;;;;;;100.13;34.47;;;3.00;99.90;;;;;;4788432;29;20545;-62
2022/01/16 03:59:05;;;;;;;106.05;32.75;;;3.00;99.90;;;;;;4788079;29;20043;-63
2022/01/16 04:01:31;;;;;;;83.13;32.50;;;3.00;99.90;;;;;;4787314;29;20054;-62
2022/01/16 04:03:57;;;;;;;97.97;34.33;;;3.00;99.90;;;;;;4789029;29;20047;-62
2022/01/16 04:06:22;;;;;;;93.45;34.00;;;3.10;99.90;;;;;;4785234;29;20114;-62
2022/01/16 04:08:50;;;;;;;106.32;34.60;;;3.00;99.90;;;;;;4788478;29;20039;-63
2022/01/16 04:11:16;;;;;;;90.35;31.98;;;3.10;99.90;;;;;;4788266;29;20058;-62
2022/01/16 04:14:05;;;;;;;97.15;33.63;;;3.10;99.90;;;;;;4788471;29;20039;-62
2022/01/16 04:16:31;;;;;;;97.38;34.95;;;3.10;99.90;;;;;;4784964;29;20040;-63
2022/01/16 04:18:57;;;;;;;96.70;33.65;;;3.90;99.90;;;;;;4787914;29;20055;-63
2022/01/16 04:21:25;;;;;;;81.90;30.58;;;3.10;99.90;;;;;;4787761;29;20061;-63
2022/01/16 04:23:52;;;;;;;98.85;35.33;;;3.10;99.90;;;;;;4786574;29;20086;-63
2022/01/16 04:26:19;;;;;;;104.78;33.80;;;3.10;99.90;;;;;;4787517;29;20078;-63
2022/01/16 04:28:48;;;;;;;90.35;32.42;;;3.30;99.90;;;;;;4787894;29;20390;-62
2022/01/16 04:31:15;;;;;;;96.00;33.95;;;3.20;99.90;;;;;;4787486;29;20147;-63
2022/01/16 04:33:41;;;;;;;97.72;34.85;;;3.20;99.90;;;;;;4786429;29;20557;-63
2022/01/16 04:36:08;;;;;;;76.35;31.20;;;3.20;99.90;;;;;;4785298;29;20128;-62
2022/01/16 04:38:36;;;;;;;93.53;33.55;;;3.30;99.90;;;;;;4785682;29;20050;-63
2022/01/16 04:43:52;;;;;;;88.15;33.65;;;3.30;99.90;;;;;;4787579;29;20450;-62
2022/01/16 04:46:18;;;;;;;83.80;31.55;;;3.30;99.90;;;;;;4782773;29;20058;-62
2022/01/16 04:48:44;;;;;;;79.75;33.58;;;3.30;99.90;;;;;;4787702;29;20047;-63
2022/01/16 04:51:10;;;;;;;87.35;33.28;;;3.30;99.90;;;;;;4787080;29;20662;-63
2022/01/16 04:53:36;;;;;;;97.38;34.95;;;3.40;99.90;;;;;;4784002;29;20043;-62
2022/01/16 04:56:03;;;;;;;95.95;34.33;;;3.40;99.90;;;;;;4785066;29;20101;-63
2022/01/16 04:58:29;;;;;;;92.15;34.63;;;3.40;99.90;;;;;;4787576;29;20397;-63
2022/01/16 05:00:55;;;;;;;91.18;34.80;;;3.40;99.90;;;;;;4788147;29;20039;-63
2022/01/16 05:03:25;;;;;;;93.05;33.72;;;3.40;99.90;;;;;;4785841;29;20051;-63
2022/01/16 05:05:51;;;;;;;98.93;35.17;;;3.40;99.90;;;;;;4785887;30;20123;-62
2022/01/16 05:08:17;;;;;;;87.88;31.73;;;3.40;99.90;;;;;;4786874;29;20130;-62
2022/01/16 05:10:43;;;;;;;100.55;34.88;;;3.40;99.90;;;;;;4787591;30;20142;-62
2022/01/16 05:18:37;;;;;;;109.45;36.72;;;3.40;99.90;;;;;;4785808;29;20369;-62
2022/01/16 05:21:03;;;;;;;101.25;37.03;;;3.40;99.90;;;;;;4786485;29;20607;-63
2022/01/16 05:23:29;;;;;;;109.00;36.90;;;3.40;99.90;;;;;;4785373;29;20054;-63
2022/01/16 05:25:56;;;;;;;108.05;35.95;;;3.50;99.90;;;;;;4786835;29;20484;-63
2022/01/16 05:28:22;;;;;;;103.03;34.92;;;3.50;99.90;;;;;;4787340;29;20473;-62
2022/01/16 05:30:48;;;;;;;88.22;32.83;;;3.50;99.90;;;;;;4785894;30;20090;-63
2022/01/16 05:33:14;;;;;;;106.78;37.22;;;3.50;99.90;;;;;;4787010;29;20047;-63
2022/01/16 05:35:39;;;;;;;93.97;34.63;;;3.50;99.90;;;;;;4785860;29;20491;-63
2022/01/16 05:38:05;;;;;;;106.53;36.55;;;3.50;99.90;;;;;;4785932;29;20039;-62
2022/01/16 05:40:31;;;;;;;98.80;35.95;;;3.60;99.90;;;;;;4786446;29;20051;-63
2022/01/16 05:42:58;;;;;;;103.50;35.45;;;4.40;99.90;;;;;;4797737;29;20459;-62
2022/01/16 05:45:24;;;;;;;100.30;35.97;;;3.60;99.90;;;;;;4784604;29;20527;-62
2022/01/16 05:47:50;;;;;;;100.57;34.45;;;3.60;99.90;;;;;;4785234;29;20050;-62
2022/01/16 05:50:16;;;;;;;99.38;35.28;;;3.60;99.90;;;;;;4786674;29;20687;-63
2022/01/16 05:52:42;;;;;;;99.47;35.35;;;3.60;99.90;;;;;;4787180;29;20051;-63
2022/01/16 05:55:08;;;;;;;104.53;35.95;;;3.70;99.90;;;;;;4785040;29;20050;-62
2022/01/16 05:57:34;;;;;;;117.05;38.30;;;3.60;99.90;;;;;;4786930;29;20485;-62
2022/01/16 06:00:00;;;;;;;108.53;35.90;;;3.60;99.90;;;;;;4782170;29;20055;-62
2022/01/16 06:02:26;;;;;;;114.10;37.17;;;3.60;99.90;;;;;;4783389;29;20043;-62
2022/01/16 06:04:52;;;;;;;111.22;35.60;;;3.70;99.90;;;;;;4785886;29;20417;-62
2022/01/16 06:07:18;;;;;;;97.20;34.03;;;3.70;99.90;;;;;;4786731;29;20043;-62
2022/01/16 06:09:44;;;;;;;108.90;36.05;;;3.70;99.90;;;;;;4787117;29;20053;-63
2022/01/16 06:12:10;;;;;;;108.60;39.05;;;3.70;99.90;;;;;;4785885;29;20043;-62
2022/01/16 06:14:36;;;;;;;107.10;35.60;;;3.80;99.90;;;;;;4784936;29;20051;-63
2022/01/16 06:17:01;;;;;;;125.40;39.20;;;3.80;99.90;;;;;;4786600;30;20047;-62
2022/01/16 06:19:27;;;;;;;104.90;37.42;;;3.80;99.90;;;;;;4782397;29;20039;-63
2022/01/16 06:21:53;;;;;;;109.45;38.35;;;3.80;99.90;;;;;;4768194;30;20460;-62
2022/01/16 06:24:18;;;;;;;105.80;36.17;;;3.80;99.90;;;;;;4786458;29;20054;-63
2022/01/16 06:26:44;;;;;;;96.28;34.33;;;3.80;99.90;;;;;;4785462;30;20126;-62
2022/01/16 06:29:10;;;;;;;102.70;36.50;;;3.80;99.90;;;;;;4786425;29;20047;-63
2022/01/16 06:31:36;;;;;;;110.65;35.53;;;3.80;99.90;;;;;;4783148;29;20074;-62
2022/01/16 06:34:02;;;;;;;92.05;33.63;;;4.00;99.90;;;;;;4786333;29;20130;-62
2022/01/16 06:36:28;;;;;;;104.43;36.90;;;3.80;99.90;;;;;;4786783;29;20065;-63
2022/01/16 06:38:55;;;;;;;99.28;35.72;;;3.80;99.90;;;;;;4785894;29;20505;-63
2022/01/16 06:41:21;;;;;;;98.63;35.45;;;3.80;99.90;;;;;;4785518;29;20473;-62
2022/01/16 06:43:46;;;;;;;95.28;35.58;;;3.80;99.90;;;;;;4783234;29;20382;-62
2022/01/16 06:46:12;;;;;;;116.20;38.33;;;3.80;99.90;;;;;;4786016;29;20107;-62
2022/01/16 06:48:40;;;;;;;117.78;38.88;;;3.90;99.90;;;;;;4785723;29;20060;-63
2022/01/16 06:51:07;;;;;;;104.57;36.92;;;3.90;99.90;;;;;;4785431;29;20079;-62
2022/01/16 06:53:33;;;;;;;97.68;36.17;;;3.90;99.90;;;;;;4784404;29;20083;-63
2022/01/16 06:55:58;;;;;;;119.47;38.58;;;4.00;99.90;;;;;;4786505;29;20055;-63
2022/01/16 06:58:24;;;;;;;111.60;37.67;;;3.90;99.90;;;;;;4785727;29;20437;-62
2022/01/16 07:00:50;;;;;;;109.07;36.75;;;3.90;99.90;;;;;;4785821;29;20079;-62
2022/01/16 07:03:16;;;;;;;99.18;36.08;;;4.10;99.90;;;;;;4784639;29;20081;-62
2022/01/16 07:05:43;;;;;;;104.97;36.63;;;4.00;99.90;;;;;;4783659;29;20054;-63
2022/01/16 07:08:09;;;;;;;104.78;36.83;;;4.00;99.90;;;;;;4784485;29;20714;-62
2022/01/16 07:10:34;;;;;;;94.63;36.85;;;4.00;99.90;;;;;;4781805;29;20130;-63
2022/01/16 07:13:00;;;;;;;93.75;35.97;;;4.00;99.90;;;;;;4786128;29;20047;-62
2022/01/16 07:15:26;;;;;;;102.03;37.78;;;4.10;99.90;;;;;;4784207;29;20104;-62
2022/01/16 07:17:51;;;;;;;105.38;37.42;;;4.00;99.90;;;;;;4785449;29;20047;-62
2022/01/16 07:20:17;;;;;;;95.53;36.45;;;4.10;99.90;;;;;;4782499;29;20047;-63
2022/01/16 07:22:44;;;;;;;109.90;39.33;;;4.10;99.90;;;;;;4784167;29;20043;-62
2022/01/16 07:25:11;;;;;;;103.63;40.22;;;4.00;99.90;;;;;;4785070;29;20063;-63
2022/01/16 07:27:37;;;;;;;108.43;38.30;;;4.10;99.90;;;;;;4787908;29;20047;-63
2022/01/16 07:30:04;;;;;;;115.68;39.88;;;4.10;99.90;;;;;;4784764;29;20047;-63
2022/01/16 07:32:30;;;;;;;99.53;37.22;;;4.10;99.90;;;;;;4789120;29;20134;-63
2022/01/16 07:34:56;;;;;;;106.53;39.63;;;4.10;99.90;;;;;;4787507;29;20138;-63
2022/01/16 07:37:22;;;;;;;91.35;37.30;;;4.20;99.90;;;;;;4786986;29;20075;-62
2022/01/16 07:39:47;;;;;;;117.32;41.10;;;4.20;99.90;;;;;;4787166;29;20042;-63
2022/01/16 07:42:13;;;;;;;109.60;39.92;;;4.10;99.90;;;;;;4789179;29;20051;-62
2022/01/16 07:44:39;;;;;;;86.97;36.20;;;4.10;99.90;;;;;;4783373;29;20505;-62
2022/01/16 07:47:05;;;;;;;98.45;38.35;;;4.10;99.90;;;;;;4780219;29;20570;-62
2022/01/16 07:49:31;;;;;;;102.32;38.17;;;4.20;99.90;;;;;;4786891;29;20443;-62
2022/01/16 07:51:56;;;;;;;99.82;39.13;;;4.20;99.90;;;;;;4786763;29;20058;-62
2022/01/16 07:54:23;;;;;;;91.50;37.35;;;4.20;99.90;;;;;;4789628;29;20101;-62
2022/01/16 07:56:49;;;;;;;110.03;39.65;;;4.20;99.90;;;;;;4788352;29;20081;-62
2022/01/16 07:59:16;;;;;;;101.53;38.55;;;4.20;99.90;;;;;;4788415;29;20642;-62
2022/01/16 08:01:42;;;;;;;99.15;37.53;;;4.30;99.90;;;;;;4788033;29;20094;-62
2022/01/16 08:04:08;;;;;;;100.28;37.17;;;4.30;99.90;;;;;;4772165;29;20051;-63
2022/01/16 08:06:33;;;;;;;86.05;36.70;;;4.30;99.90;;;;;;4787964;29;20091;-62
2022/01/16 08:08:59;;;;;;;92.53;36.83;;;4.30;99.90;;;;;;4787188;30;20043;-62
2022/01/16 08:11:25;;;;;;;92.97;37.95;;;4.40;99.90;;;;;;4787851;29;20505;-62
2022/01/16 08:13:51;;;;;;;91.60;35.63;;;4.40;99.90;;;;;;4786797;29;20047;-62
2022/01/16 08:16:16;;;;;;;93.72;37.00;;;4.50;99.90;;;;;;4785245;29;20047;-62
2022/01/16 08:18:42;;;;;;;93.32;36.17;;;4.40;99.90;;;;;;4782943;29;20091;-62
2022/01/16 08:21:08;;;;;;;83.70;35.97;;;4.40;99.90;;;;;;4783284;29;20080;-62
2022/01/16 08:23:34;;;;;;;83.32;36.97;;;4.50;99.90;;;;;;4793515;29;20085;-62
2022/01/16 08:26:00;;;;;;;85.65;35.95;;;4.50;99.90;;;;;;4793972;29;20058;-62
2022/01/16 08:28:26;;;;;;;84.57;35.47;;;4.50;99.90;;;;;;4788648;29;20058;-62
2022/01/16 08:30:52;;;;;;;88.13;37.28;;;4.50;99.90;;;;;;4787460;29;20051;-62
2022/01/16 08:33:17;;;;;;;87.88;36.58;;;4.50;99.90;;;;;;4786490;29;20047;-62
2022/01/16 08:35:43;;;;;;;89.30;36.20;;;4.50;99.90;;;;;;4785017;29;20074;-62
2022/01/16 08:38:09;;;;;;;81.10;34.75;;;4.50;99.90;;;;;;4786904;29;20108;-63
2022/01/16 08:40:35;;;;;;;76.60;32.97;;;4.50;99.90;;;;;;4787647;29;20054;-63
2022/01/16 08:43:08;;;;;;;69.53;32.85;;;4.60;99.90;;;;;;4785360;29;20053;-62
2022/01/16 08:45:38;;;;;;;66.18;32.35;;;4.70;99.90;;;;;;4787717;29;20047;-63
2022/01/16 08:48:05;;;;;;;89.22;35.45;;;4.60;99.90;;;;;;4783296;30;20126;-62
2022/01/16 08:50:31;;;;;;;78.88;33.75;;;4.70;99.90;;;;;;4787114;29;20055;-63
2022/01/16 08:52:57;;;;;;;74.47;34.28;;;4.70;99.90;;;;;;4787434;29;20074;-62
2022/01/16 08:55:23;;;;;;;68.07;32.47;;;4.80;99.90;;;;;;4786294;29;20074;-62
2022/01/16 08:57:48;;;;;;;71.72;35.58;;;4.80;99.90;;;;;;4786938;29;20043;-62
2022/01/16 09:00:14;;;;;;;72.03;33.60;;;4.80;99.90;;;;;;4786167;29;20142;-62
2022/01/16 09:02:40;;;;;;;76.70;35.17;;;4.80;99.90;;;;;;4786754;29;20043;-63
2022/01/16 09:05:06;;;;;;;74.88;35.28;;;4.80;99.90;;;;;;4785539;29;21123;-63
2022/01/16 09:07:32;;;;;;;76.72;34.08;;;4.80;99.90;;;;;;4781620;29;20043;-63
2022/01/16 09:10:00;;;;;;;75.13;34.63;;;4.50;99.90;;;;;;4786923;29;20043;-62
2022/01/16 09:12:27;;;;;;;71.18;34.20;;;4.90;99.90;;;;;;4784977;29;20392;-63
2022/01/16 09:14:53;;;;;;;61.97;32.53;;;4.90;99.90;;;;;;4786038;29;20079;-63
2022/01/16 09:17:19;;;;;;;65.35;32.88;;;4.90;99.90;;;;;;4782624;29;20069;-62
2022/01/16 09:19:45;;;;;;;66.43;33.38;;;4.90;99.90;;;;;;4782968;29;20036;-62
2022/01/16 09:22:11;;;;;;;64.68;31.35;;;5.00;99.90;;;;;;4785622;30;20043;-62
2022/01/16 09:24:37;;;;;;;69.00;34.22;;;5.00;99.90;;;;;;4786131;29;20057;-62
2022/01/16 09:27:03;;;;;;;65.80;32.38;;;5.00;99.90;;;;;;4787202;29;20134;-62
2022/01/16 09:29:29;;;;;;;68.10;33.10;;;5.00;99.90;;;;;;4785351;30;20084;-62
2022/01/16 09:31:55;;;;;;;65.43;33.75;;;5.00;99.90;;;;;;4787833;29;20047;-63
2022/01/16 09:34:20;;;;;;;63.75;32.13;;;5.00;99.90;;;;;;4787396;30;20130;-63
2022/01/16 09:36:46;;;;;;;64.13;30.60;;;5.00;99.90;;;;;;4785469;29;20051;-62
2022/01/16 09:39:12;;;;;;;68.15;33.10;;;5.10;99.90;;;;;;4785834;30;20541;-62
2022/01/16 09:41:40;;;;;;;63.08;32.55;;;5.10;99.90;;;;;;4785656;29;20058;-62
2022/01/16 09:44:06;;;;;;;54.42;30.65;;;5.20;99.90;;;;;;4783488;30;20180;-63
2022/01/16 09:46:32;;;;;;;66.70;32.38;;;5.10;99.90;;;;;;4786720;29;20520;-62
2022/01/16 09:48:57;;;;;;;58.28;32.17;;;5.10;99.90;;;;;;4785147;29;20051;-63
2022/01/16 09:51:23;;;;;;;60.60;30.95;;;5.10;99.90;;;;;;4787120;29;20051;-63
2022/01/16 09:53:49;;;;;;;59.33;31.20;;;5.20;99.90;;;;;;4785461;29;20123;-63
2022/01/16 09:56:15;;;;;;;53.42;28.75;;;5.20;99.90;;;;;;4783117;29;20051;-63
2022/01/16 09:58:41;;;;;;;54.25;29.42;;;5.20;99.90;;;;;;4786385;29;20040;-63
2022/01/16 10:01:07;;;;;;;56.83;29.02;;;5.20;99.90;;;;;;4784034;29;20128;-63
2022/01/16 10:03:38;;;;;;;47.55;27.38;;;5.20;99.90;;;;;;4780859;30;20481;-62
2022/01/16 10:06:15;;;;;;;46.88;27.05;;;5.30;99.90;;;;;;4776512;29;20066;-63
2022/01/16 10:08:42;;;;;;;45.45;25.17;;;5.30;99.90;;;;;;4786071;29;20047;-62
2022/01/16 10:11:23;;;;;;;46.95;25.05;;;5.30;99.90;;;;;;4784877;29;20405;-63
2022/01/16 10:14:15;;;;;;;45.40;24.13;;;5.30;99.90;;;;;;4784194;29;20050;-63
2022/01/16 10:16:42;;;;;;;47.28;24.45;;;5.30;99.90;;;;;;4785542;29;20047;-62
2022/01/16 10:19:29;;;;;;;43.90;22.50;;;5.40;99.90;;;;;;4785627;30;20055;-62
2022/01/16 10:22:02;;;;;;;41.80;21.13;;;5.40;99.90;;;;;;4785967;29;20054;-62
2022/01/16 10:24:32;;;;;;;38.05;20.58;;;5.40;99.90;;;;;;4783126;29;20066;-63
2022/01/16 10:27:12;;;;;;;38.63;20.92;;;5.50;99.90;;;;;;4784352;30;20131;-63
2022/01/16 10:29:52;;;;;;;37.05;19.65;;;5.60;99.90;;;;;;4785505;29;20059;-62
2022/01/16 10:32:31;;;;;;;32.33;18.55;;;5.60;99.90;;;;;;4783593;29;20092;-63
2022/01/16 10:35:08;;;;;;;28.95;17.92;;;5.70;99.90;;;;;;4783701;29;20529;-63
2022/01/16 10:37:34;;;;;;;31.50;16.77;;;5.70;99.90;;;;;;4785602;29;20201;-63
2022/01/16 10:40:22;;;;;;;31.58;17.40;;;5.70;99.90;;;;;;4784803;29;20133;-63
2022/01/16 10:42:50;;;;;;;30.20;16.55;;;5.80;99.90;;;;;;4784341;29;20106;-64
2022/01/16 10:45:17;;;;;;;27.05;16.02;;;5.80;99.90;;;;;;4786459;29;20050;-64
2022/01/16 10:47:51;;;;;;;31.08;14.93;;;5.80;99.90;;;;;;4786408;29;20051;-63
2022/01/16 10:50:36;;;;;;;29.73;15.13;;;5.90;99.90;;;;;;4785177;29;20067;-64
2022/01/16 10:53:04;;;;;;;26.23;14.48;;;5.90;99.90;;;;;;4785176;29;20055;-63
2022/01/16 10:55:41;;;;;;;25.77;13.48;;;6.00;99.90;;;;;;4783821;29;20059;-63
2022/01/16 10:58:15;;;;;;;25.83;14.18;;;6.00;99.90;;;;;;4783082;29;20050;-64
2022/01/16 11:00:44;;;;;;;26.63;13.57;;;6.10;99.90;;;;;;4785962;29;20074;-64
2022/01/16 11:03:12;;;;;;;27.10;13.20;;;6.10;99.90;;;;;;4789454;29;20122;-64
2022/01/16 11:05:41;;;;;;;24.95;13.75;;;6.20;99.90;;;;;;4789550;29;20051;-64
2022/01/16 11:08:16;;;;;;;21.83;13.45;;;6.20;99.90;;;;;;4788701;29;20092;-64
2022/01/16 11:10:47;;;;;;;21.98;13.07;;;6.20;99.90;;;;;;4787869;29;20114;-64
2022/01/16 11:13:18;;;;;;;23.50;12.90;;;6.20;99.90;;;;;;4787823;29;20043;-64
2022/01/16 11:15:48;;;;;;;25.75;12.48;;;6.40;99.90;;;;;;4788682;29;20067;-64
2022/01/16 11:18:14;;;;;;;25.42;13.02;;;6.30;99.90;;;;;;4788664;29;20051;-64
2022/01/16 11:20:45;;;;;;;23.77;12.45;;;6.30;99.90;;;;;;4789840;29;20054;-64
2022/01/16 11:25:39;;;;;;;26.85;12.90;;;6.30;99.90;;;;;;4785528;29;20070;-64
2022/01/16 11:28:18;;;;;;;21.70;12.60;;;6.40;99.90;;;;;;4784292;29;20069;-64
2022/01/16 11:30:50;;;;;;;19.88;11.13;;;6.40;99.90;;;;;;4785744;29;20051;-64
2022/01/16 11:33:17;;;;;;;19.08;10.70;;;6.40;99.90;;;;;;4787088;29;20051;-64
2022/01/16 11:36:08;;;;;;;15.68;10.02;;;6.40;99.90;;;;;;4789178;29;20044;-64
2022/01/16 11:38:41;;;;;;;21.05;11.13;;;6.40;99.90;;;;;;4800213;29;20071;-64
2022/01/16 11:41:20;;;;;;;21.08;11.27;;;6.40;99.90;;;;;;4784675;29;20404;-64
2022/01/16 11:43:50;;;;;;;22.92;10.18;;;6.50;99.90;;;;;;4778816;29;20051;-64
2022/01/16 11:46:23;;;;;;;14.48;9.50;;;6.50;99.90;;;;;;4788947;29;20043;-64
2022/01/16 11:48:58;;;;;;;20.90;9.63;;;6.60;99.90;;;;;;4785739;29;20058;-64
2022/01/16 11:51:35;;;;;;;17.88;9.25;;;6.60;99.90;;;;;;4786434;29;20201;-64
2022/01/16 11:54:01;;;;;;;14.45;7.53;;;6.80;99.90;;;;;;4787597;29;20047;-64
2022/01/16 11:56:39;;;;;;;17.88;7.40;;;6.70;99.90;;;;;;4787711;29;20122;-63
2022/01/16 11:59:15;;;;;;;16.13;7.68;;;6.70;99.90;;;;;;4785125;29;20100;-63
2022/01/16 12:01:42;;;;;;;;;;;6.70;99.90;;;;;;4785632;30;20050;-64
2022/01/16 12:04:27;;;;;;;14.70;6.70;;;6.70;99.90;;;;;;4785581;29;19980;-63
2022/01/16 12:06:53;;;;;;;13.83;7.60;;;6.80;99.90;;;;;;4781220;29;20058;-64
2022/01/16 12:09:34;;;;;;;16.08;7.20;;;6.90;99.90;;;;;;4788798;29;20397;-64
2022/01/16 12:12:00;;;;;;;16.42;7.00;;;6.90;99.90;;;;;;4784383;29;20048;-64
2022/01/16 12:14:48;;;;;;;16.25;6.90;;;7.00;99.90;;;;;;4783864;29;20397;-64
2022/01/16 12:20:22;;;;;;;17.70;7.97;;;7.10;99.90;;;;;;4788452;30;20058;-64
2022/01/16 12:22:56;;;;;;;15.65;6.68;;;7.10;99.90;;;;;;4778442;29;20090;-64
2022/01/16 12:25:36;;;;;;;13.80;7.05;;;7.10;99.90;;;;;;4788135;29;20043;-64
2022/01/16 12:28:04;;;;;;;15.65;6.45;;;7.20;99.90;;;;;;4781496;29;20557;-64
2022/01/16 12:30:52;;;;;;;18.48;7.47;;;7.20;99.90;;;;;;4788707;29;20047;-64
2022/01/16 12:33:39;;;;;;;16.80;6.78;;;7.20;99.90;;;;;;4787704;29;20051;-64
2022/01/16 12:36:08;;;;;;;15.65;6.95;;;7.20;99.90;;;;;;4776840;29;20071;-64
2022/01/16 12:39:08;;;;;;;13.50;7.05;;;7.20;99.90;;;;;;4788959;29;20146;-64
2022/01/16 12:41:43;;;;;;;14.07;6.50;;;7.20;99.90;;;;;;4801911;29;20054;-64
2022/01/16 12:44:17;;;;;;;16.48;6.47;;;7.30;99.90;;;;;;4788956;29;20047;-64
2022/01/16 12:46:48;;;;;;;13.55;6.65;;;7.30;99.90;;;;;;4787541;29;20098;-64
2022/01/16 12:49:19;;;;;;;18.77;6.95;;;7.30;99.90;;;;;;4779058;29;20063;-64
2022/01/16 12:51:56;;;;;;;12.82;6.40;;;7.40;99.90;;;;;;4788609;29;20479;-64
2022/01/16 12:54:28;;;;;;;14.73;7.07;;;7.30;99.90;;;;;;4788554;29;20053;-64
2022/01/16 12:56:54;;;;;;;15.95;6.85;;;7.30;99.90;;;;;;4788668;29;20051;-64
2022/01/16 12:59:23;;;;;;;13.70;6.45;;;7.30;99.90;;;;;;4788623;29;20108;-64
2022/01/16 13:01:55;;;;;;;14.30;6.72;;;7.30;99.90;;;;;;4788512;29;20083;-64
2022/01/16 13:04:34;;;;;;;19.80;6.82;;;7.30;99.90;;;;;;4788370;29;20055;-64
2022/01/16 13:07:09;;;;;;;17.10;6.65;;;7.30;99.90;;;;;;4787039;29;20047;-64
2022/01/16 13:09:35;;;;;;;14.93;6.20;;;7.40;99.90;;;;;;4791642;29;20100;-64
2022/01/16 13:12:02;;;;;;;18.70;6.55;;;7.40;99.90;;;;;;4786556;29;20051;-64
2022/01/16 13:14:40;;;;;;;14.57;6.30;;;7.40;99.90;;;;;;4786898;29;20051;-64
2022/01/16 13:17:08;;;;;;;17.25;6.95;;;7.30;99.90;;;;;;4787429;29;20104;-64
2022/01/16 13:19:49;;;;;;;14.13;6.30;;;7.30;99.90;;;;;;4782444;29;20047;-64
2022/01/16 13:22:16;;;;;;;18.05;6.68;;;7.30;99.90;;;;;;4786907;29;20063;-64
2022/01/16 13:25:13;;;;;;;17.00;6.57;;;7.30;99.90;;;;;;4787886;29;20497;-64
2022/01/16 13:27:42;;;;;;;11.95;5.93;;;7.30;99.90;;;;;;4775806;30;20070;-64
2022/01/16 13:30:11;;;;;;;16.05;6.35;;;7.30;99.90;;;;;;4788478;29;20055;-64
2022/01/16 13:32:39;;;;;;;15.15;6.75;;;7.30;99.90;;;;;;4788337;29;20090;-64
2022/01/16 13:35:17;;;;;;;11.60;5.70;;;7.30;99.90;;;;;;4787881;29;20458;-64